sensor_id;sensor_type;location;lat;lon;timestamp;temperature;humidity
13488;DHT22;6816;48.506;9.050;2023-04-28T00:00:07;13.00;92.50
13488;DHT22;6816;48.506;9.050;2023-04-28T00:03:08;13.00;92.50
13488;DHT22;6816;48.506;9.050;2023-04-28T00:06:09;13.10;92.50
13488;DHT22;6816;48.506;9.050;2023-04-28T00:09:10;13.10;92.40
13488;DHT22;6816;48.506;9.050;2023-04-28T00:12:11;13.10;92.30
13488;DHT22;6816;48.506;9.050;2023-04-28T00:15:11;13.00;92.20
13488;DHT22;6816;48.506;9.050;2023-04-28T00:18:12;13.00;92.20
13488;DHT22;6816;48.506;9.050;2023-04-28T00:21:13;13.00;92.10
13488;DHT22;6816;48.506;9.050;2023-04-28T00:24:14;12.90;92.10
13488;DHT22;6816;48.506;9.050;2023-04-28T00:27:14;12.90;92.50
13488;DHT22;6816;48.506;9.050;2023-04-28T00:30:15;12.90;92.30
13488;DHT22;6816;48.506;9.050;2023-04-28T00:33:16;12.90;92.40
13488;DHT22;6816;48.506;9.050;2023-04-28T00:36:16;12.80;92.90
13488;DHT22;6816;48.506;9.050;2023-04-28T00:39:17;12.80;92.60
13488;DHT22;6816;48.506;9.050;2023-04-28T00:42:18;12.80;92.80
13488;DHT22;6816;48.506;9.050;2023-04-28T00:45:18;12.80;92.80
13488;DHT22;6816;48.506;9.050;2023-04-28T00:48:19;12.80;93.00
13488;DHT22;6816;48.506;9.050;2023-04-28T00:51:19;12.80;93.00
13488;DHT22;6816;48.506;9.050;2023-04-28T00:54:20;12.80;93.10
13488;DHT22;6816;48.506;9.050;2023-04-28T00:57:22;12.80;93.20
13488;DHT22;6816;48.506;9.050;2023-04-28T01:00:22;12.80;93.30
13488;DHT22;6816;48.506;9.050;2023-04-28T01:03:23;12.80;93.40
13488;DHT22;6816;48.506;9.050;2023-04-28T01:06:24;12.70;93.40
13488;DHT22;6816;48.506;9.050;2023-04-28T01:09:24;12.70;93.50
13488;DHT22;6816;48.506;9.050;2023-04-28T01:12:25;12.70;94.00
13488;DHT22;6816;48.506;9.050;2023-04-28T01:15:26;12.70;93.70
13488;DHT22;6816;48.506;9.050;2023-04-28T01:18:27;12.80;93.90
13488;DHT22;6816;48.506;9.050;2023-04-28T01:21:30;12.80;93.90
13488;DHT22;6816;48.506;9.050;2023-04-28T01:24:31;12.70;93.90
13488;DHT22;6816;48.506;9.050;2023-04-28T01:27:32;12.80;94.00
13488;DHT22;6816;48.506;9.050;2023-04-28T01:30:33;12.80;94.00
13488;DHT22;6816;48.506;9.050;2023-04-28T01:33:34;12.80;94.10
13488;DHT22;6816;48.506;9.050;2023-04-28T01:36:36;12.80;94.10
13488;DHT22;6816;48.506;9.050;2023-04-28T01:39:36;12.80;94.20
13488;DHT22;6816;48.506;9.050;2023-04-28T01:42:37;12.90;94.30
13488;DHT22;6816;48.506;9.050;2023-04-28T01:45:38;12.80;94.30
13488;DHT22;6816;48.506;9.050;2023-04-28T01:48:38;12.80;94.30
13488;DHT22;6816;48.506;9.050;2023-04-28T01:51:39;12.80;94.30
13488;DHT22;6816;48.506;9.050;2023-04-28T01:58:38;12.80;93.90
13488;DHT22;6816;48.506;9.050;2023-04-28T02:01:38;12.70;94.40
13488;DHT22;6816;48.506;9.050;2023-04-28T02:04:39;12.70;94.80
13488;DHT22;6816;48.506;9.050;2023-04-28T02:07:40;12.70;94.60
13488;DHT22;6816;48.506;9.050;2023-04-28T02:10:40;12.70;94.70
13488;DHT22;6816;48.506;9.050;2023-04-28T02:13:41;12.60;94.80
13488;DHT22;6816;48.506;9.050;2023-04-28T02:16:42;12.60;94.90
13488;DHT22;6816;48.506;9.050;2023-04-28T02:19:42;12.60;95.00
13488;DHT22;6816;48.506;9.050;2023-04-28T02:22:43;12.60;95.10
13488;DHT22;6816;48.506;9.050;2023-04-28T02:25:44;12.60;95.20
13488;DHT22;6816;48.506;9.050;2023-04-28T02:28:44;12.60;95.30
13488;DHT22;6816;48.506;9.050;2023-04-28T02:31:45;12.60;95.30
13488;DHT22;6816;48.506;9.050;2023-04-28T02:34:46;12.60;95.40
13488;DHT22;6816;48.506;9.050;2023-04-28T02:37:46;12.60;95.50
13488;DHT22;6816;48.506;9.050;2023-04-28T02:40:47;12.80;95.70
13488;DHT22;6816;48.506;9.050;2023-04-28T02:43:47;12.60;95.70
13488;DHT22;6816;48.506;9.050;2023-04-28T02:46:48;12.60;95.90
13488;DHT22;6816;48.506;9.050;2023-04-28T02:49:49;12.70;96.00
13488;DHT22;6816;48.506;9.050;2023-04-28T02:52:50;12.70;96.10
13488;DHT22;6816;48.506;9.050;2023-04-28T02:55:50;12.70;96.20
13488;DHT22;6816;48.506;9.050;2023-04-28T02:58:51;12.70;96.30
13488;DHT22;6816;48.506;9.050;2023-04-28T03:01:52;12.70;96.40
13488;DHT22;6816;48.506;9.050;2023-04-28T03:04:52;12.70;96.50
13488;DHT22;6816;48.506;9.050;2023-04-28T03:07:53;12.70;96.60
13488;DHT22;6816;48.506;9.050;2023-04-28T03:10:53;12.70;96.70
13488;DHT22;6816;48.506;9.050;2023-04-28T03:13:54;12.70;96.70
13488;DHT22;6816;48.506;9.050;2023-04-28T03:16:55;12.80;96.90
13488;DHT22;6816;48.506;9.050;2023-04-28T03:19:57;12.80;97.00
13488;DHT22;6816;48.506;9.050;2023-04-28T03:22:57;12.80;97.00
13488;DHT22;6816;48.506;9.050;2023-04-28T03:25:58;12.80;97.10
13488;DHT22;6816;48.506;9.050;2023-04-28T03:28:58;12.80;97.10
13488;DHT22;6816;48.506;9.050;2023-04-28T03:31:59;12.90;97.20
13488;DHT22;6816;48.506;9.050;2023-04-28T03:35:00;12.90;97.30
13488;DHT22;6816;48.506;9.050;2023-04-28T03:38:01;12.90;97.40
13488;DHT22;6816;48.506;9.050;2023-04-28T03:41:01;13.00;97.50
13488;DHT22;6816;48.506;9.050;2023-04-28T03:44:02;13.00;97.50
13488;DHT22;6816;48.506;9.050;2023-04-28T03:47:03;13.00;97.50
13488;DHT22;6816;48.506;9.050;2023-04-28T03:50:03;13.00;97.60
13488;DHT22;6816;48.506;9.050;2023-04-28T03:53:05;13.00;97.60
13488;DHT22;6816;48.506;9.050;2023-04-28T03:56:05;13.10;97.70
13488;DHT22;6816;48.506;9.050;2023-04-28T03:59:06;13.10;97.80
13488;DHT22;6816;48.506;9.050;2023-04-28T04:02:07;13.10;97.80
13488;DHT22;6816;48.506;9.050;2023-04-28T04:05:07;13.10;97.90
13488;DHT22;6816;48.506;9.050;2023-04-28T04:08:08;13.10;97.90
13488;DHT22;6816;48.506;9.050;2023-04-28T04:11:09;13.20;98.00
13488;DHT22;6816;48.506;9.050;2023-04-28T04:14:10;13.10;98.10
13488;DHT22;6816;48.506;9.050;2023-04-28T04:17:11;13.20;98.20
13488;DHT22;6816;48.506;9.050;2023-04-28T04:20:11;13.10;98.30
13488;DHT22;6816;48.506;9.050;2023-04-28T04:23:12;13.20;98.40
13488;DHT22;6816;48.506;9.050;2023-04-28T04:26:12;13.20;98.50
13488;DHT22;6816;48.506;9.050;2023-04-28T04:29:13;13.20;98.50
13488;DHT22;6816;48.506;9.050;2023-04-28T04:32:14;13.20;98.70
13488;DHT22;6816;48.506;9.050;2023-04-28T04:35:14;13.20;98.80
13488;DHT22;6816;48.506;9.050;2023-04-28T04:38:15;13.20;99.00
13488;DHT22;6816;48.506;9.050;2023-04-28T04:41:17;13.20;99.10
13488;DHT22;6816;48.506;9.050;2023-04-28T04:44:19;13.10;99.20
13488;DHT22;6816;48.506;9.050;2023-04-28T04:47:21;13.20;99.40
13488;DHT22;6816;48.506;9.050;2023-04-28T04:50:21;13.10;99.50
13488;DHT22;6816;48.506;9.050;2023-04-28T04:53:22;13.20;99.60
13488;DHT22;6816;48.506;9.050;2023-04-28T04:56:22;13.10;99.80
13488;DHT22;6816;48.506;9.050;2023-04-28T04:59:23;13.10;99.90
13488;DHT22;6816;48.506;9.050;2023-04-28T05:02:24;13.10;99.90
13488;DHT22;6816;48.506;9.050;2023-04-28T05:05:24;13.10;99.90
13488;DHT22;6816;48.506;9.050;2023-04-28T05:08:25;13.10;99.90
13488;DHT22;6816;48.506;9.050;2023-04-28T05:11:26;13.10;99.90
13488;DHT22;6816;48.506;9.050;2023-04-28T05:14:26;13.20;99.90
13488;DHT22;6816;48.506;9.050;2023-04-28T05:17:27;13.20;99.90
13488;DHT22;6816;48.506;9.050;2023-04-28T05:20:27;13.20;99.90
13488;DHT22;6816;48.506;9.050;2023-04-28T05:23:28;13.40;99.90
13488;DHT22;6816;48.506;9.050;2023-04-28T05:26:29;13.30;99.90
13488;DHT22;6816;48.506;9.050;2023-04-28T05:29:33;13.30;99.90
13488;DHT22;6816;48.506;9.050;2023-04-28T05:32:34;13.40;99.90
13488;DHT22;6816;48.506;9.050;2023-04-28T05:35:35;13.40;99.90
13488;DHT22;6816;48.506;9.050;2023-04-28T05:38:36;13.40;99.90
13488;DHT22;6816;48.506;9.050;2023-04-28T05:41:36;13.40;99.90
13488;DHT22;6816;48.506;9.050;2023-04-28T05:44:37;13.50;99.90
13488;DHT22;6816;48.506;9.050;2023-04-28T05:47:38;13.50;99.90
13488;DHT22;6816;48.506;9.050;2023-04-28T05:50:38;13.50;99.90
13488;DHT22;6816;48.506;9.050;2023-04-28T05:53:39;13.50;99.90
13488;DHT22;6816;48.506;9.050;2023-04-28T05:56:39;13.50;99.90
13488;DHT22;6816;48.506;9.050;2023-04-28T05:59:40;13.50;99.90
13488;DHT22;6816;48.506;9.050;2023-04-28T06:02:41;13.50;99.90
13488;DHT22;6816;48.506;9.050;2023-04-28T06:05:42;13.60;99.90
13488;DHT22;6816;48.506;9.050;2023-04-28T06:08:42;13.60;99.90
13488;DHT22;6816;48.506;9.050;2023-04-28T06:11:43;13.60;99.90
13488;DHT22;6816;48.506;9.050;2023-04-28T06:14:43;13.70;99.90
13488;DHT22;6816;48.506;9.050;2023-04-28T06:17:44;13.70;99.90
13488;DHT22;6816;48.506;9.050;2023-04-28T06:20:45;13.80;99.90
13488;DHT22;6816;48.506;9.050;2023-04-28T06:23:46;13.90;99.90
13488;DHT22;6816;48.506;9.050;2023-04-28T06:26:46;13.90;99.90
13488;DHT22;6816;48.506;9.050;2023-04-28T06:29:47;13.90;99.90
13488;DHT22;6816;48.506;9.050;2023-04-28T06:32:48;14.00;99.90
13488;DHT22;6816;48.506;9.050;2023-04-28T06:35:48;14.00;99.90
13488;DHT22;6816;48.506;9.050;2023-04-28T06:38:49;14.00;99.90
13488;DHT22;6816;48.506;9.050;2023-04-28T06:41:50;14.00;99.90
13488;DHT22;6816;48.506;9.050;2023-04-28T06:44:51;14.10;99.90
13488;DHT22;6816;48.506;9.050;2023-04-28T06:47:52;14.10;99.90
13488;DHT22;6816;48.506;9.050;2023-04-28T06:50:55;14.10;99.90
13488;DHT22;6816;48.506;9.050;2023-04-28T06:53:55;14.20;99.90
13488;DHT22;6816;48.506;9.050;2023-04-28T06:56:56;14.20;99.90
13488;DHT22;6816;48.506;9.050;2023-04-28T06:59:57;14.30;99.90
13488;DHT22;6816;48.506;9.050;2023-04-28T07:02:57;14.30;99.90
13488;DHT22;6816;48.506;9.050;2023-04-28T07:05:58;14.40;99.90
13488;DHT22;6816;48.506;9.050;2023-04-28T07:08:59;14.40;99.90
13488;DHT22;6816;48.506;9.050;2023-04-28T07:11:59;14.40;99.90
13488;DHT22;6816;48.506;9.050;2023-04-28T07:15:00;14.50;99.90
13488;DHT22;6816;48.506;9.050;2023-04-28T07:18:01;14.50;99.90
13488;DHT22;6816;48.506;9.050;2023-04-28T07:21:01;14.60;99.90
13488;DHT22;6816;48.506;9.050;2023-04-28T07:24:02;14.50;99.90
13488;DHT22;6816;48.506;9.050;2023-04-28T07:27:03;14.60;99.90
13488;DHT22;6816;48.506;9.050;2023-04-28T07:30:04;14.60;99.90
13488;DHT22;6816;48.506;9.050;2023-04-28T07:33:04;14.60;99.90
13488;DHT22;6816;48.506;9.050;2023-04-28T07:36:05;14.70;99.90
13488;DHT22;6816;48.506;9.050;2023-04-28T07:39:07;14.80;99.90
13488;DHT22;6816;48.506;9.050;2023-04-28T07:42:08;14.90;99.90
13488;DHT22;6816;48.506;9.050;2023-04-28T07:45:11;14.90;99.90
13488;DHT22;6816;48.506;9.050;2023-04-28T07:48:11;15.00;99.90
13488;DHT22;6816;48.506;9.050;2023-04-28T07:51:12;15.10;99.90
13488;DHT22;6816;48.506;9.050;2023-04-28T07:54:14;15.10;99.90
13488;DHT22;6816;48.506;9.050;2023-04-28T07:57:15;15.10;99.90
13488;DHT22;6816;48.506;9.050;2023-04-28T08:00:16;15.20;99.90
13488;DHT22;6816;48.506;9.050;2023-04-28T08:03:17;15.20;99.90
13488;DHT22;6816;48.506;9.050;2023-04-28T08:06:18;15.20;99.90
13488;DHT22;6816;48.506;9.050;2023-04-28T08:09:19;15.30;99.90
13488;DHT22;6816;48.506;9.050;2023-04-28T08:12:19;15.30;99.90
13488;DHT22;6816;48.506;9.050;2023-04-28T08:15:21;15.30;99.90
13488;DHT22;6816;48.506;9.050;2023-04-28T08:18:22;15.30;99.90
13488;DHT22;6816;48.506;9.050;2023-04-28T08:21:23;15.30;99.90
13488;DHT22;6816;48.506;9.050;2023-04-28T08:24:23;15.30;99.90
13488;DHT22;6816;48.506;9.050;2023-04-28T08:27:24;15.40;99.90
13488;DHT22;6816;48.506;9.050;2023-04-28T08:30:25;15.40;99.90
13488;DHT22;6816;48.506;9.050;2023-04-28T08:33:26;15.40;99.90
13488;DHT22;6816;48.506;9.050;2023-04-28T08:36:26;15.50;99.90
13488;DHT22;6816;48.506;9.050;2023-04-28T08:39:31;15.60;99.90
13488;DHT22;6816;48.506;9.050;2023-04-28T08:42:34;15.50;99.90
13488;DHT22;6816;48.506;9.050;2023-04-28T08:45:42;15.60;99.90
13488;DHT22;6816;48.506;9.050;2023-04-28T08:48:44;15.70;99.90
13488;DHT22;6816;48.506;9.050;2023-04-28T08:51:49;15.70;99.90
13488;DHT22;6816;48.506;9.050;2023-04-28T08:54:51;15.80;99.90
13488;DHT22;6816;48.506;9.050;2023-04-28T08:57:52;15.80;99.90
13488;DHT22;6816;48.506;9.050;2023-04-28T09:00:54;15.90;99.90
13488;DHT22;6816;48.506;9.050;2023-04-28T09:03:55;16.00;99.90
13488;DHT22;6816;48.506;9.050;2023-04-28T09:06:56;16.10;99.90
13488;DHT22;6816;48.506;9.050;2023-04-28T09:13:25;16.20;99.90
13488;DHT22;6816;48.506;9.050;2023-04-28T09:16:38;16.30;99.90
13488;DHT22;6816;48.506;9.050;2023-04-28T09:19:40;16.40;99.90
13488;DHT22;6816;48.506;9.050;2023-04-28T09:22:44;16.50;99.90
13488;DHT22;6816;48.506;9.050;2023-04-28T09:26:14;16.50;99.90
13488;DHT22;6816;48.506;9.050;2023-04-28T09:29:15;16.60;99.90
13488;DHT22;6816;48.506;9.050;2023-04-28T09:32:21;16.60;99.90
13488;DHT22;6816;48.506;9.050;2023-04-28T09:35:42;16.70;99.90
13488;DHT22;6816;48.506;9.050;2023-04-28T09:38:44;16.80;99.90
13488;DHT22;6816;48.506;9.050;2023-04-28T09:41:45;16.90;99.90
13488;DHT22;6816;48.506;9.050;2023-04-28T09:44:52;17.10;99.90
13488;DHT22;6816;48.506;9.050;2023-04-28T09:48:08;17.30;99.90
13488;DHT22;6816;48.506;9.050;2023-04-28T09:51:10;17.50;99.90
13488;DHT22;6816;48.506;9.050;2023-04-28T09:54:11;17.70;99.90
13488;DHT22;6816;48.506;9.050;2023-04-28T09:57:13;17.90;99.90
13488;DHT22;6816;48.506;9.050;2023-04-28T10:00:14;18.10;99.90
13488;DHT22;6816;48.506;9.050;2023-04-28T10:03:16;18.40;99.90
13488;DHT22;6816;48.506;9.050;2023-04-28T10:06:19;18.60;99.90
13488;DHT22;6816;48.506;9.050;2023-04-28T10:09:19;18.80;99.90
13488;DHT22;6816;48.506;9.050;2023-04-28T10:12:26;19.00;99.90
13488;DHT22;6816;48.506;9.050;2023-04-28T10:15:27;19.20;99.90
13488;DHT22;6816;48.506;9.050;2023-04-28T10:18:28;19.30;99.90
13488;DHT22;6816;48.506;9.050;2023-04-28T10:21:34;19.50;99.90
13488;DHT22;6816;48.506;9.050;2023-04-28T10:28:09;19.80;99.90
13488;DHT22;6816;48.506;9.050;2023-04-28T10:31:11;20.00;99.90
13488;DHT22;6816;48.506;9.050;2023-04-28T10:34:22;20.20;99.90
13488;DHT22;6816;48.506;9.050;2023-04-28T10:41:02;20.50;99.90
13488;DHT22;6816;48.506;9.050;2023-04-28T10:47:59;20.60;99.90
13488;DHT22;6816;48.506;9.050;2023-04-28T10:54:08;20.70;99.90
13488;DHT22;6816;48.506;9.050;2023-04-28T10:57:16;20.80;99.90
13488;DHT22;6816;48.506;9.050;2023-04-28T11:00:30;21.00;99.90
13488;DHT22;6816;48.506;9.050;2023-04-28T11:07:10;21.60;99.90
13488;DHT22;6816;48.506;9.050;2023-04-28T11:10:12;21.90;99.90
13488;DHT22;6816;48.506;9.050;2023-04-28T11:13:28;22.20;99.90
13488;DHT22;6816;48.506;9.050;2023-04-28T11:16:33;22.40;99.90
13488;DHT22;6816;48.506;9.050;2023-04-28T11:19:47;22.60;99.90
13488;DHT22;6816;48.506;9.050;2023-04-28T11:22:51;22.70;99.90
13488;DHT22;6816;48.506;9.050;2023-04-28T11:25:55;22.80;99.90
13488;DHT22;6816;48.506;9.050;2023-04-28T11:28:57;22.80;99.90
13488;DHT22;6816;48.506;9.050;2023-04-28T11:31:58;22.90;99.90
13488;DHT22;6816;48.506;9.050;2023-04-28T11:34:59;23.00;99.90
13488;DHT22;6816;48.506;9.050;2023-04-28T11:38:02;23.10;99.90
13488;DHT22;6816;48.506;9.050;2023-04-28T11:41:03;23.20;99.90
13488;DHT22;6816;48.506;9.050;2023-04-28T11:44:18;23.40;99.90
13488;DHT22;6816;48.506;9.050;2023-04-28T11:47:34;23.60;99.90
13488;DHT22;6816;48.506;9.050;2023-04-28T11:50:36;23.70;99.90
13488;DHT22;6816;48.506;9.050;2023-04-28T11:53:44;23.80;99.90
13488;DHT22;6816;48.506;9.050;2023-04-28T11:56:44;23.80;99.90
13488;DHT22;6816;48.506;9.050;2023-04-28T11:59:45;23.70;99.90
13488;DHT22;6816;48.506;9.050;2023-04-28T12:02:46;23.60;99.90
13488;DHT22;6816;48.506;9.050;2023-04-28T12:05:47;23.40;99.90
13488;DHT22;6816;48.506;9.050;2023-04-28T12:08:48;23.30;99.90
13488;DHT22;6816;48.506;9.050;2023-04-28T12:11:53;23.10;99.90
13488;DHT22;6816;48.506;9.050;2023-04-28T12:15:07;23.10;99.90
13488;DHT22;6816;48.506;9.050;2023-04-28T12:18:09;23.00;99.10
13488;DHT22;6816;48.506;9.050;2023-04-28T12:21:20;22.90;99.90
13488;DHT22;6816;48.506;9.050;2023-04-28T12:24:20;22.90;99.90
13488;DHT22;6816;48.506;9.050;2023-04-28T12:27:21;22.80;99.90
13488;DHT22;6816;48.506;9.050;2023-04-28T12:30:24;22.90;99.90
13488;DHT22;6816;48.506;9.050;2023-04-28T12:33:26;22.80;99.90
13488;DHT22;6816;48.506;9.050;2023-04-28T12:36:28;22.80;99.90
13488;DHT22;6816;48.506;9.050;2023-04-28T12:39:28;22.70;99.90
13488;DHT22;6816;48.506;9.050;2023-04-28T12:42:29;22.70;99.90
13488;DHT22;6816;48.506;9.050;2023-04-28T12:45:30;22.70;99.90
13488;DHT22;6816;48.506;9.050;2023-04-28T12:48:32;22.60;99.90
13488;DHT22;6816;48.506;9.050;2023-04-28T12:51:34;22.60;99.90
13488;DHT22;6816;48.506;9.050;2023-04-28T12:54:35;22.70;99.90
13488;DHT22;6816;48.506;9.050;2023-04-28T12:57:36;22.70;99.90
13488;DHT22;6816;48.506;9.050;2023-04-28T13:00:37;22.70;99.90
13488;DHT22;6816;48.506;9.050;2023-04-28T13:03:37;22.70;99.90
13488;DHT22;6816;48.506;9.050;2023-04-28T13:06:38;22.70;99.90
13488;DHT22;6816;48.506;9.050;2023-04-28T13:09:43;22.70;99.90
13488;DHT22;6816;48.506;9.050;2023-04-28T13:12:44;22.70;99.90
13488;DHT22;6816;48.506;9.050;2023-04-28T13:15:44;22.80;99.90
13488;DHT22;6816;48.506;9.050;2023-04-28T13:18:45;23.00;99.90
13488;DHT22;6816;48.506;9.050;2023-04-28T13:21:48;23.10;99.90
13488;DHT22;6816;48.506;9.050;2023-04-28T13:24:48;23.20;99.90
13488;DHT22;6816;48.506;9.050;2023-04-28T13:27:49;23.20;99.90
13488;DHT22;6816;48.506;9.050;2023-04-28T13:30:50;23.30;99.90
13488;DHT22;6816;48.506;9.050;2023-04-28T13:33:50;23.30;99.90
13488;DHT22;6816;48.506;9.050;2023-04-28T13:36:53;23.20;99.90
13488;DHT22;6816;48.506;9.050;2023-04-28T13:39:54;23.10;99.90
13488;DHT22;6816;48.506;9.050;2023-04-28T13:42:55;23.00;99.90
13488;DHT22;6816;48.506;9.050;2023-04-28T13:45:56;22.90;99.90
13488;DHT22;6816;48.506;9.050;2023-04-28T13:48:57;22.70;99.90
13488;DHT22;6816;48.506;9.050;2023-04-28T13:51:57;22.70;99.90
13488;DHT22;6816;48.506;9.050;2023-04-28T13:54:58;22.60;99.90
13488;DHT22;6816;48.506;9.050;2023-04-28T13:57:59;22.40;99.90
13488;DHT22;6816;48.506;9.050;2023-04-28T14:01:03;22.30;99.90
13488;DHT22;6816;48.506;9.050;2023-04-28T14:04:04;22.10;99.90
13488;DHT22;6816;48.506;9.050;2023-04-28T14:07:05;21.90;99.80
13488;DHT22;6816;48.506;9.050;2023-04-28T14:10:06;21.70;99.70
13488;DHT22;6816;48.506;9.050;2023-04-28T14:13:06;21.40;99.90
13488;DHT22;6816;48.506;9.050;2023-04-28T14:16:07;21.20;99.90
13488;DHT22;6816;48.506;9.050;2023-04-28T14:19:08;21.00;99.90
13488;DHT22;6816;48.506;9.050;2023-04-28T14:22:09;20.90;99.90
13488;DHT22;6816;48.506;9.050;2023-04-28T14:25:09;20.70;99.90
13488;DHT22;6816;48.506;9.050;2023-04-28T14:28:10;20.50;99.90
13488;DHT22;6816;48.506;9.050;2023-04-28T14:31:11;20.40;99.90
13488;DHT22;6816;48.506;9.050;2023-04-28T14:34:12;20.20;99.90
13488;DHT22;6816;48.506;9.050;2023-04-28T14:37:12;20.00;99.90
13488;DHT22;6816;48.506;9.050;2023-04-28T14:40:13;19.90;99.90
13488;DHT22;6816;48.506;9.050;2023-04-28T14:43:14;19.70;99.90
13488;DHT22;6816;48.506;9.050;2023-04-28T14:46:15;19.50;99.90
13488;DHT22;6816;48.506;9.050;2023-04-28T14:49:22;19.40;99.90
13488;DHT22;6816;48.506;9.050;2023-04-28T14:52:23;19.20;99.90
13488;DHT22;6816;48.506;9.050;2023-04-28T14:55:28;19.00;99.90
13488;DHT22;6816;48.506;9.050;2023-04-28T14:58:29;18.90;99.90
13488;DHT22;6816;48.506;9.050;2023-04-28T15:01:29;18.80;99.90
13488;DHT22;6816;48.506;9.050;2023-04-28T15:04:31;18.70;99.90
13488;DHT22;6816;48.506;9.050;2023-04-28T15:07:32;18.60;99.90
13488;DHT22;6816;48.506;9.050;2023-04-28T15:10:37;18.60;99.90
13488;DHT22;6816;48.506;9.050;2023-04-28T15:13:38;18.50;99.90
13488;DHT22;6816;48.506;9.050;2023-04-28T15:16:39;18.50;99.90
13488;DHT22;6816;48.506;9.050;2023-04-28T15:19:39;18.50;99.90
13488;DHT22;6816;48.506;9.050;2023-04-28T15:22:40;18.50;99.90
13488;DHT22;6816;48.506;9.050;2023-04-28T15:25:43;18.40;99.90
13488;DHT22;6816;48.506;9.050;2023-04-28T15:28:44;18.40;99.90
13488;DHT22;6816;48.506;9.050;2023-04-28T15:31:45;18.40;99.90
13488;DHT22;6816;48.506;9.050;2023-04-28T15:34:46;18.40;99.90
13488;DHT22;6816;48.506;9.050;2023-04-28T15:37:48;18.40;99.90
13488;DHT22;6816;48.506;9.050;2023-04-28T15:40:49;18.40;99.90
13488;DHT22;6816;48.506;9.050;2023-04-28T15:43:50;18.40;99.90
13488;DHT22;6816;48.506;9.050;2023-04-28T15:46:50;18.50;99.90
13488;DHT22;6816;48.506;9.050;2023-04-28T15:49:51;18.40;99.90
13488;DHT22;6816;48.506;9.050;2023-04-28T15:52:52;18.40;99.90
13488;DHT22;6816;48.506;9.050;2023-04-28T15:55:53;18.40;99.90
13488;DHT22;6816;48.506;9.050;2023-04-28T15:58:53;18.40;99.90
13488;DHT22;6816;48.506;9.050;2023-04-28T16:01:54;18.40;99.90
13488;DHT22;6816;48.506;9.050;2023-04-28T16:04:55;18.40;99.90
13488;DHT22;6816;48.506;9.050;2023-04-28T16:07:56;18.30;99.90
13488;DHT22;6816;48.506;9.050;2023-04-28T16:10:57;18.30;99.90
13488;DHT22;6816;48.506;9.050;2023-04-28T16:13:57;18.30;99.90
13488;DHT22;6816;48.506;9.050;2023-04-28T16:16:58;18.30;99.90
13488;DHT22;6816;48.506;9.050;2023-04-28T16:19:58;18.30;99.90
13488;DHT22;6816;48.506;9.050;2023-04-28T16:22:59;18.40;99.90
13488;DHT22;6816;48.506;9.050;2023-04-28T16:26:00;18.30;99.90
13488;DHT22;6816;48.506;9.050;2023-04-28T16:29:01;18.30;99.90
13488;DHT22;6816;48.506;9.050;2023-04-28T16:32:02;18.30;99.90
13488;DHT22;6816;48.506;9.050;2023-04-28T16:35:03;18.30;99.90
13488;DHT22;6816;48.506;9.050;2023-04-28T16:38:05;18.40;99.90
13488;DHT22;6816;48.506;9.050;2023-04-28T16:41:06;18.40;99.90
13488;DHT22;6816;48.506;9.050;2023-04-28T16:44:07;18.40;99.90
13488;DHT22;6816;48.506;9.050;2023-04-28T16:47:07;18.40;99.90
13488;DHT22;6816;48.506;9.050;2023-04-28T16:50:11;18.50;99.90
13488;DHT22;6816;48.506;9.050;2023-04-28T16:53:14;18.50;99.90
13488;DHT22;6816;48.506;9.050;2023-04-28T16:56:14;18.50;99.90
13488;DHT22;6816;48.506;9.050;2023-04-28T16:59:15;18.60;99.90
13488;DHT22;6816;48.506;9.050;2023-04-28T17:02:16;18.60;99.90
13488;DHT22;6816;48.506;9.050;2023-04-28T17:05:17;18.60;99.90
13488;DHT22;6816;48.506;9.050;2023-04-28T17:08:18;18.60;99.90
13488;DHT22;6816;48.506;9.050;2023-04-28T17:11:18;18.60;99.90
13488;DHT22;6816;48.506;9.050;2023-04-28T17:14:19;18.60;99.90
13488;DHT22;6816;48.506;9.050;2023-04-28T17:17:20;18.60;99.90
13488;DHT22;6816;48.506;9.050;2023-04-28T17:20:21;18.60;99.90
13488;DHT22;6816;48.506;9.050;2023-04-28T17:23:22;18.60;99.90
13488;DHT22;6816;48.506;9.050;2023-04-28T17:26:23;18.60;99.90
13488;DHT22;6816;48.506;9.050;2023-04-28T17:29:25;18.60;99.90
13488;DHT22;6816;48.506;9.050;2023-04-28T17:32:25;18.60;99.90
13488;DHT22;6816;48.506;9.050;2023-04-28T17:35:28;18.60;99.90
13488;DHT22;6816;48.506;9.050;2023-04-28T17:38:28;18.60;99.90
13488;DHT22;6816;48.506;9.050;2023-04-28T17:41:30;18.60;99.90
13488;DHT22;6816;48.506;9.050;2023-04-28T17:44:31;18.60;99.90
13488;DHT22;6816;48.506;9.050;2023-04-28T17:47:31;18.60;99.90
13488;DHT22;6816;48.506;9.050;2023-04-28T17:50:33;18.50;99.90
13488;DHT22;6816;48.506;9.050;2023-04-28T17:53:34;18.50;99.90
13488;DHT22;6816;48.506;9.050;2023-04-28T17:56:38;18.40;99.90
13488;DHT22;6816;48.506;9.050;2023-04-28T17:59:39;18.40;99.90
13488;DHT22;6816;48.506;9.050;2023-04-28T18:02:40;18.30;99.90
13488;DHT22;6816;48.506;9.050;2023-04-28T18:05:40;18.30;99.90
13488;DHT22;6816;48.506;9.050;2023-04-28T18:08:41;18.20;99.90
13488;DHT22;6816;48.506;9.050;2023-04-28T18:11:41;18.00;99.90
13488;DHT22;6816;48.506;9.050;2023-04-28T18:14:42;18.10;99.90
13488;DHT22;6816;48.506;9.050;2023-04-28T18:17:43;18.10;99.90
13488;DHT22;6816;48.506;9.050;2023-04-28T18:20:45;18.00;99.90
13488;DHT22;6816;48.506;9.050;2023-04-28T18:23:46;18.00;99.90
13488;DHT22;6816;48.506;9.050;2023-04-28T18:26:47;17.90;99.90
13488;DHT22;6816;48.506;9.050;2023-04-28T18:29:47;17.80;99.90
13488;DHT22;6816;48.506;9.050;2023-04-28T18:32:48;17.80;99.90
13488;DHT22;6816;48.506;9.050;2023-04-28T18:36:03;17.70;99.90
13488;DHT22;6816;48.506;9.050;2023-04-28T18:39:05;17.70;99.90
13488;DHT22;6816;48.506;9.050;2023-04-28T18:42:06;17.60;99.90
13488;DHT22;6816;48.506;9.050;2023-04-28T18:45:07;17.50;99.90
13488;DHT22;6816;48.506;9.050;2023-04-28T18:48:09;17.40;99.90
13488;DHT22;6816;48.506;9.050;2023-04-28T18:51:10;17.30;99.90
13488;DHT22;6816;48.506;9.050;2023-04-28T18:54:10;17.30;99.90
13488;DHT22;6816;48.506;9.050;2023-04-28T18:57:11;17.20;99.90
13488;DHT22;6816;48.506;9.050;2023-04-28T19:00:12;17.20;99.90
13488;DHT22;6816;48.506;9.050;2023-04-28T19:03:14;17.20;99.90
13488;DHT22;6816;48.506;9.050;2023-04-28T19:06:15;17.10;99.90
13488;DHT22;6816;48.506;9.050;2023-04-28T19:09:17;17.10;99.90
13488;DHT22;6816;48.506;9.050;2023-04-28T19:12:17;17.10;99.90
13488;DHT22;6816;48.506;9.050;2023-04-28T19:15:18;17.10;99.90
13488;DHT22;6816;48.506;9.050;2023-04-28T19:18:19;17.10;99.90
13488;DHT22;6816;48.506;9.050;2023-04-28T19:21:20;17.00;99.90
13488;DHT22;6816;48.506;9.050;2023-04-28T19:24:21;17.00;99.90
13488;DHT22;6816;48.506;9.050;2023-04-28T19:27:21;17.00;99.90
13488;DHT22;6816;48.506;9.050;2023-04-28T19:30:22;17.00;99.90
13488;DHT22;6816;48.506;9.050;2023-04-28T19:33:23;16.90;99.90
13488;DHT22;6816;48.506;9.050;2023-04-28T19:36:24;16.90;99.90
13488;DHT22;6816;48.506;9.050;2023-04-28T19:39:24;16.80;99.90
13488;DHT22;6816;48.506;9.050;2023-04-28T19:42:25;16.80;99.90
13488;DHT22;6816;48.506;9.050;2023-04-28T19:45:26;16.80;99.90
13488;DHT22;6816;48.506;9.050;2023-04-28T19:48:26;16.70;99.90